Terminal Aerodrome Forecast
Issued by NWS Bismarck, ND

Home | Current Version | Previous Version | Graphics & Text | Print | Product List | Glossary On
Versions: 1 2 3 4 5 6 7 8 9 10 11 12 13 14 15 16 17
539
FTUS43 KBIS 222219 AAA
TAFISN
TAF AMD
KISN 222219Z 2222/2318 25020G29KT P6SM VCTS BKN060CB
     FM230100 27018KT P6SM BKN100 WS020/28040KT
     FM231000 29025G38KT P6SM SCT130
     FM231400 30020G32KT P6SM SCT200 WS020/31035KT
      AMD NOT SKED=

USA.gov is the U.S. government's official web portal to all federal, state and local government web resources and services.